createdAt,value
2022-08-31T00:01:38.836Z,15.20
2022-08-31T00:04:08.419Z,15.10
2022-08-31T00:06:37.817Z,15.10
2022-08-31T00:09:07.865Z,15.10
2022-08-31T00:11:36.305Z,15.10
2022-08-31T00:14:13.230Z,15.00
2022-08-31T00:16:43.449Z,15.00
2022-08-31T00:19:11.646Z,15.00
2022-08-31T00:21:40.116Z,15.00
2022-08-31T00:24:10.547Z,15.00
2022-08-31T00:26:38.493Z,14.90
2022-08-31T00:29:06.691Z,14.90
2022-08-31T00:31:36.121Z,14.90
2022-08-31T00:34:05.080Z,14.90
2022-08-31T00:36:33.282Z,14.80
2022-08-31T00:39:01.413Z,14.80
2022-08-31T00:41:31.767Z,14.80
2022-08-31T00:44:03.022Z,14.80
2022-08-31T00:46:32.636Z,14.80
2022-08-31T00:49:06.931Z,14.80
2022-08-31T00:51:39.192Z,14.70
2022-08-31T00:54:09.228Z,14.70
2022-08-31T00:56:38.077Z,14.70
2022-08-31T00:59:06.778Z,14.70
2022-08-31T01:01:34.886Z,14.60
2022-08-31T01:04:05.180Z,14.60
2022-08-31T01:06:34.626Z,14.60
2022-08-31T01:09:05.520Z,14.60
2022-08-31T01:11:37.640Z,14.60
2022-08-31T01:14:08.169Z,14.60
2022-08-31T01:16:41.525Z,14.60
2022-08-31T01:19:15.733Z,14.50
2022-08-31T01:21:48.498Z,14.50
2022-08-31T01:24:20.549Z,14.50
2022-08-31T01:26:55.637Z,14.50
2022-08-31T01:29:24.500Z,14.50
2022-08-31T01:31:52.552Z,14.40
2022-08-31T01:34:20.681Z,14.40
2022-08-31T01:36:51.074Z,14.40
2022-08-31T01:39:21.513Z,14.40
2022-08-31T01:41:49.640Z,14.40
2022-08-31T01:44:23.492Z,14.30
2022-08-31T01:46:52.452Z,14.40
2022-08-31T01:49:23.399Z,14.40
2022-08-31T01:51:53.243Z,14.40
2022-08-31T01:54:25.069Z,14.40
2022-08-31T01:56:53.116Z,14.40
2022-08-31T01:59:29.988Z,14.40
2022-08-31T02:02:11.284Z,14.50
2022-08-31T02:04:39.410Z,14.50
2022-08-31T02:07:07.542Z,14.50
2022-08-31T02:09:36.908Z,14.50
2022-08-31T02:12:07.677Z,14.50
2022-08-31T02:14:40.786Z,14.60
2022-08-31T02:17:09.409Z,14.60
2022-08-31T02:19:38.060Z,14.60
2022-08-31T02:22:06.070Z,14.70
2022-08-31T02:24:34.101Z,14.60
2022-08-31T02:27:03.498Z,14.70
2022-08-31T02:29:32.011Z,14.70
2022-08-31T02:32:00.412Z,14.70
2022-08-31T02:34:29.352Z,14.70
2022-08-31T02:36:58.449Z,14.80
2022-08-31T02:39:28.717Z,14.80
2022-08-31T02:41:59.228Z,14.80
2022-08-31T02:44:31.588Z,14.80
2022-08-31T02:46:59.634Z,14.80
2022-08-31T02:49:42.138Z,14.80
2022-08-31T02:52:10.326Z,14.80
2022-08-31T02:54:38.381Z,14.70
2022-08-31T02:57:07.097Z,14.80
2022-08-31T02:59:36.718Z,14.80
2022-08-31T03:02:05.035Z,14.70
2022-08-31T03:04:35.096Z,14.70
2022-08-31T03:07:03.498Z,14.70
2022-08-31T03:09:32.759Z,14.70
2022-08-31T03:12:01.022Z,14.70
2022-08-31T03:14:29.094Z,14.70
2022-08-31T03:16:58.501Z,14.60
2022-08-31T03:19:26.606Z,14.60
2022-08-31T03:21:55.883Z,14.60
2022-08-31T03:24:25.046Z,14.60
2022-08-31T03:26:55.769Z,14.60
2022-08-31T03:29:23.772Z,14.60
2022-08-31T03:31:54.496Z,14.60
2022-08-31T03:34:24.132Z,14.60
2022-08-31T03:36:56.765Z,14.50
2022-08-31T03:39:25.057Z,14.50
2022-08-31T03:41:56.375Z,14.50
2022-08-31T03:44:25.058Z,14.40
2022-08-31T03:46:56.390Z,14.40
2022-08-31T03:49:27.667Z,14.50
2022-08-31T03:52:09.151Z,14.50
2022-08-31T03:54:45.049Z,14.40
2022-08-31T03:57:13.832Z,14.40
2022-08-31T03:59:41.859Z,14.40
2022-08-31T04:02:18.545Z,14.50
2022-08-31T04:05:13.281Z,14.40
2022-08-31T04:07:59.974Z,14.30
2022-08-31T04:10:48.805Z,14.30
2022-08-31T04:13:34.964Z,14.30
2022-08-31T04:16:23.654Z,14.30
2022-08-31T04:19:20.624Z,14.30
2022-08-31T04:22:00.156Z,14.20
2022-08-31T04:24:32.139Z,14.30
2022-08-31T04:27:01.277Z,14.20
2022-08-31T04:29:29.364Z,14.20
2022-08-31T04:31:57.494Z,14.20
2022-08-31T04:34:26.894Z,14.20
2022-08-31T04:36:55.259Z,14.20
2022-08-31T04:39:25.142Z,14.20
2022-08-31T04:41:56.280Z,14.20
2022-08-31T04:44:26.779Z,14.20
2022-08-31T04:46:57.898Z,14.20
2022-08-31T04:49:25.991Z,14.20
2022-08-31T04:51:54.462Z,14.30
2022-08-31T04:54:23.868Z,14.40
2022-08-31T04:56:51.922Z,14.60
2022-08-31T04:59:29.450Z,14.70
2022-08-31T05:02:35.591Z,14.90
2022-08-31T05:05:12.279Z,15.00
2022-08-31T05:07:40.710Z,15.20
2022-08-31T05:10:11.337Z,15.30
2022-08-31T05:12:39.440Z,15.40
2022-08-31T05:15:08.337Z,15.50
2022-08-31T05:17:36.643Z,15.70
2022-08-31T05:20:06.693Z,15.60
2022-08-31T05:22:35.274Z,15.60
2022-08-31T05:25:06.871Z,15.50
2022-08-31T05:27:38.271Z,15.70
2022-08-31T05:30:10.744Z,15.90
2022-08-31T05:32:43.888Z,16.00
2022-08-31T05:35:14.629Z,16.20
2022-08-31T05:37:44.709Z,16.30
2022-08-31T05:40:13.830Z,16.20
2022-08-31T05:42:45.428Z,15.80
2022-08-31T05:45:14.766Z,15.70
2022-08-31T05:47:43.671Z,15.60
2022-08-31T05:50:12.053Z,15.60
2022-08-31T05:52:42.832Z,15.50
2022-08-31T05:55:11.966Z,15.40
2022-08-31T05:57:40.615Z,15.40
2022-08-31T06:00:11.637Z,15.20
2022-08-31T06:02:47.886Z,15.10
2022-08-31T06:05:17.538Z,15.20
2022-08-31T06:07:48.273Z,15.20
2022-08-31T06:10:18.530Z,15.30
2022-08-31T06:12:47.284Z,15.40
2022-08-31T06:15:21.016Z,15.40
2022-08-31T06:17:49.035Z,15.50
2022-08-31T06:20:18.291Z,15.60
2022-08-31T06:22:48.155Z,15.90
2022-08-31T06:25:27.823Z,16.10
2022-08-31T06:27:56.809Z,16.40
2022-08-31T06:30:27.489Z,16.50
2022-08-31T06:32:58.675Z,16.70
2022-08-31T06:35:40.855Z,16.90
2022-08-31T06:38:27.243Z,17.10
2022-08-31T06:41:36.611Z,17.20
2022-08-31T06:44:33.126Z,17.30
2022-08-31T06:47:10.185Z,17.20
2022-08-31T06:49:41.344Z,17.50
2022-08-31T06:52:09.467Z,17.60
2022-08-31T06:54:39.217Z,17.80
2022-08-31T06:57:25.604Z,17.90
2022-08-31T07:00:12.514Z,18.00
2022-08-31T07:03:33.143Z,18.00
2022-08-31T07:06:08.500Z,18.20
2022-08-31T07:08:38.873Z,18.60
2022-08-31T07:11:14.110Z,18.70
2022-08-31T07:13:42.441Z,19.00
2022-08-31T07:16:12.396Z,19.10
2022-08-31T07:18:45.541Z,19.30
2022-08-31T07:21:18.723Z,19.10
2022-08-31T07:23:48.995Z,19.00
2022-08-31T07:26:19.242Z,19.10
2022-08-31T07:28:52.890Z,18.90
2022-08-31T07:31:24.146Z,18.90
2022-08-31T07:33:55.792Z,18.60
2022-08-31T07:36:26.856Z,18.60
2022-08-31T07:39:18.870Z,18.30
2022-08-31T07:42:11.582Z,18.40
2022-08-31T07:44:41.293Z,18.40
2022-08-31T07:47:13.417Z,18.40
2022-08-31T07:49:47.736Z,18.40
2022-08-31T07:52:33.783Z,18.40
2022-08-31T07:55:11.906Z,18.50
2022-08-31T07:58:00.848Z,18.50
2022-08-31T08:00:33.011Z,18.40
2022-08-31T08:03:17.275Z,18.50
2022-08-31T08:06:12.841Z,18.60
2022-08-31T08:09:22.294Z,18.50
2022-08-31T08:12:06.384Z,18.50
2022-08-31T08:14:59.558Z,18.60
2022-08-31T08:18:06.647Z,18.50
2022-08-31T08:20:41.998Z,18.50
2022-08-31T08:23:28.157Z,18.60
2022-08-31T08:26:21.696Z,18.70
2022-08-31T08:29:05.556Z,18.60
2022-08-31T08:31:35.082Z,18.60
2022-08-31T08:34:03.450Z,18.50
2022-08-31T08:36:35.854Z,18.60
2022-08-31T08:39:07.251Z,18.70
2022-08-31T08:41:39.923Z,18.80
2022-08-31T08:44:17.775Z,18.90
2022-08-31T08:46:53.127Z,18.90
2022-08-31T08:49:31.014Z,19.20
2022-08-31T08:52:05.349Z,19.10
2022-08-31T08:54:38.636Z,19.00
2022-08-31T08:57:14.018Z,19.10
2022-08-31T08:59:44.355Z,19.10
2022-08-31T09:02:16.103Z,19.20
2022-08-31T09:04:59.787Z,19.20
2022-08-31T09:08:23.400Z,19.20
2022-08-31T09:11:07.470Z,19.30
2022-08-31T09:13:44.112Z,19.30
2022-08-31T09:16:21.936Z,19.20
2022-08-31T09:18:53.683Z,19.10
2022-08-31T09:21:25.314Z,18.90
2022-08-31T09:24:01.584Z,18.80
2022-08-31T09:26:47.226Z,19.00
2022-08-31T09:29:24.614Z,19.00
2022-08-31T09:32:05.962Z,19.00
2022-08-31T09:34:37.575Z,18.90
2022-08-31T09:37:17.186Z,18.90
2022-08-31T09:39:48.458Z,18.90
2022-08-31T09:42:30.938Z,19.10
2022-08-31T09:45:01.824Z,19.20
2022-08-31T09:47:55.939Z,19.30
2022-08-31T09:50:35.015Z,19.30
2022-08-31T09:53:34.668Z,19.40
2022-08-31T09:56:14.057Z,19.80
2022-08-31T09:58:45.965Z,19.90
2022-08-31T10:01:20.247Z,19.90
2022-08-31T10:03:49.986Z,19.70
2022-08-31T10:06:45.671Z,19.80
2022-08-31T10:09:28.511Z,19.90
2022-08-31T10:12:04.240Z,20.00
2022-08-31T10:14:38.396Z,19.90
2022-08-31T10:17:15.098Z,20.00
2022-08-31T10:19:56.366Z,19.90
2022-08-31T10:22:30.952Z,19.80
2022-08-31T10:25:12.742Z,20.00
2022-08-31T10:27:45.092Z,19.90
2022-08-31T10:30:24.044Z,19.90
2022-08-31T10:33:05.142Z,19.90
2022-08-31T10:35:42.535Z,20.00
2022-08-31T10:38:21.176Z,20.10
2022-08-31T10:40:53.485Z,20.00
2022-08-31T10:43:24.492Z,20.00
2022-08-31T10:45:59.683Z,20.20
2022-08-31T10:48:28.971Z,20.20
2022-08-31T10:51:14.235Z,20.30
2022-08-31T10:54:04.217Z,20.30
2022-08-31T10:56:41.455Z,20.30
2022-08-31T10:59:19.765Z,20.30
2022-08-31T11:02:00.771Z,20.30
2022-08-31T11:04:49.919Z,20.30
2022-08-31T11:07:31.336Z,20.20
2022-08-31T11:10:12.794Z,20.30
2022-08-31T11:12:45.354Z,20.30
2022-08-31T11:15:32.062Z,20.70
2022-08-31T11:18:39.954Z,20.70
2022-08-31T11:21:26.177Z,20.40
2022-08-31T11:24:11.046Z,20.10
2022-08-31T11:26:52.769Z,20.20
2022-08-31T11:29:41.557Z,20.60
2022-08-31T11:32:20.724Z,20.60
2022-08-31T11:34:53.555Z,20.50
2022-08-31T11:37:54.215Z,20.70
2022-08-31T11:41:14.072Z,20.80
2022-08-31T11:43:52.343Z,20.90
2022-08-31T11:46:59.793Z,20.90
2022-08-31T11:49:41.084Z,21.00
2022-08-31T11:52:25.451Z,20.90
2022-08-31T11:55:16.559Z,20.90
2022-08-31T11:58:10.079Z,20.80
2022-08-31T12:00:52.388Z,21.00
2022-08-31T12:03:39.822Z,21.30
2022-08-31T12:06:12.520Z,21.50
2022-08-31T12:08:54.580Z,21.60
2022-08-31T12:11:37.680Z,21.30
2022-08-31T12:14:17.871Z,21.00
2022-08-31T12:16:57.128Z,20.70
2022-08-31T12:20:01.889Z,20.70
2022-08-31T12:23:31.899Z,20.80
2022-08-31T12:26:45.597Z,20.80
2022-08-31T12:29:24.626Z,20.70
2022-08-31T12:32:14.659Z,20.70
2022-08-31T12:34:48.090Z,20.80
2022-08-31T12:37:27.336Z,20.90
2022-08-31T12:40:15.459Z,21.00
2022-08-31T12:43:10.253Z,21.40
2022-08-31T12:46:11.789Z,21.10
2022-08-31T12:48:55.132Z,21.00
2022-08-31T12:51:37.518Z,21.00
2022-08-31T12:54:50.116Z,21.30
2022-08-31T12:57:46.358Z,21.30
2022-08-31T13:00:29.845Z,21.50
2022-08-31T13:03:01.346Z,21.40
2022-08-31T13:05:32.165Z,21.50
2022-08-31T13:08:00.602Z,21.60
2022-08-31T13:10:33.527Z,21.90
2022-08-31T13:13:04.220Z,22.10
2022-08-31T13:15:39.433Z,21.70
2022-08-31T13:18:11.825Z,21.50
2022-08-31T13:20:42.904Z,21.10
2022-08-31T13:23:14.629Z,21.10
2022-08-31T13:25:48.377Z,21.00
2022-08-31T13:28:26.163Z,21.00
2022-08-31T13:31:03.615Z,20.90
2022-08-31T13:33:34.905Z,21.00
2022-08-31T13:36:10.828Z,21.30
2022-08-31T13:38:47.617Z,21.10
2022-08-31T13:41:27.364Z,21.10
2022-08-31T13:44:02.714Z,21.40
2022-08-31T13:46:43.353Z,21.60
2022-08-31T13:49:32.223Z,21.90
2022-08-31T13:52:00.969Z,21.80
2022-08-31T13:54:32.358Z,21.90
2022-08-31T13:57:11.694Z,21.80
2022-08-31T13:59:41.830Z,21.70
2022-08-31T14:02:36.915Z,21.50
2022-08-31T14:05:08.579Z,21.40
2022-08-31T14:07:59.100Z,21.30
2022-08-31T14:10:29.269Z,21.10
2022-08-31T14:13:00.330Z,21.20
2022-08-31T14:15:38.959Z,21.20
2022-08-31T14:18:26.829Z,21.20
2022-08-31T14:21:21.576Z,21.20
2022-08-31T14:23:52.864Z,21.10
2022-08-31T14:26:28.011Z,21.10
2022-08-31T14:29:01.108Z,21.10
2022-08-31T14:31:33.928Z,21.30
2022-08-31T14:34:28.141Z,21.50
2022-08-31T14:37:02.137Z,21.70
2022-08-31T14:39:33.335Z,21.70
2022-08-31T14:42:06.041Z,21.70
2022-08-31T14:44:36.816Z,21.50
2022-08-31T14:47:05.140Z,21.40
2022-08-31T14:49:36.611Z,21.40
2022-08-31T14:52:06.365Z,21.50
2022-08-31T14:54:37.019Z,21.40
2022-08-31T14:57:09.605Z,21.50
2022-08-31T14:59:42.998Z,21.70
2022-08-31T15:02:12.694Z,21.40
2022-08-31T15:04:45.507Z,21.40
2022-08-31T15:07:15.944Z,21.40
2022-08-31T15:09:47.659Z,21.40
2022-08-31T15:12:18.552Z,21.40
2022-08-31T15:14:47.180Z,21.50
2022-08-31T15:17:18.975Z,21.50
2022-08-31T15:19:55.098Z,21.50
2022-08-31T15:22:26.259Z,21.60
2022-08-31T15:24:55.536Z,21.70
2022-08-31T15:27:29.001Z,21.70
2022-08-31T15:30:02.491Z,21.80
2022-08-31T15:32:31.030Z,22.00
2022-08-31T15:35:00.425Z,22.10
2022-08-31T15:37:30.839Z,22.00
2022-08-31T15:40:03.733Z,22.00
2022-08-31T15:42:36.681Z,22.20
2022-08-31T15:45:08.623Z,22.10
2022-08-31T15:47:57.453Z,21.90
2022-08-31T15:50:31.409Z,21.70
2022-08-31T15:53:08.692Z,21.50
2022-08-31T15:55:40.239Z,21.30
2022-08-31T15:58:09.217Z,21.20
2022-08-31T16:00:37.717Z,21.00
2022-08-31T16:03:06.301Z,20.90
2022-08-31T16:05:38.999Z,21.00
2022-08-31T16:08:10.987Z,21.00
2022-08-31T16:10:44.469Z,20.90
2022-08-31T16:13:12.816Z,20.80
2022-08-31T16:15:41.260Z,20.90
2022-08-31T16:18:09.741Z,20.90
2022-08-31T16:20:39.246Z,20.90
2022-08-31T16:23:07.520Z,20.90
2022-08-31T16:25:41.800Z,20.90
2022-08-31T16:28:21.015Z,20.90
2022-08-31T16:30:51.675Z,21.00
2022-08-31T16:33:20.520Z,21.00
2022-08-31T16:35:50.274Z,21.00
2022-08-31T16:38:18.606Z,21.00
2022-08-31T16:40:46.776Z,21.00
2022-08-31T16:43:14.853Z,21.00
2022-08-31T16:45:43.100Z,21.00
2022-08-31T16:48:29.816Z,20.90
2022-08-31T16:51:02.737Z,20.80
2022-08-31T16:53:31.427Z,20.70
2022-08-31T16:55:59.820Z,20.50
2022-08-31T16:58:50.620Z,20.40
2022-08-31T17:01:22.941Z,20.30
2022-08-31T17:03:56.435Z,20.30
2022-08-31T17:06:27.357Z,20.20
2022-08-31T17:08:56.208Z,20.10
2022-08-31T17:11:26.297Z,20.10
2022-08-31T17:13:58.095Z,20.00
2022-08-31T17:16:31.399Z,20.00
2022-08-31T17:19:00.063Z,20.00
2022-08-31T17:21:32.375Z,19.90
2022-08-31T17:24:02.502Z,19.80
2022-08-31T17:26:33.703Z,19.80
2022-08-31T17:29:03.857Z,19.70
2022-08-31T17:31:34.357Z,19.70
2022-08-31T17:34:02.760Z,19.60
2022-08-31T17:36:37.267Z,19.60
2022-08-31T17:39:09.183Z,19.50
2022-08-31T17:41:38.712Z,19.50
2022-08-31T17:44:07.876Z,19.40
2022-08-31T17:46:36.997Z,19.40
2022-08-31T17:49:06.430Z,19.30
2022-08-31T17:51:36.593Z,19.20
2022-08-31T17:54:07.629Z,19.20
2022-08-31T17:56:41.409Z,19.20
2022-08-31T17:59:20.021Z,19.10
2022-08-31T18:01:50.592Z,19.10
2022-08-31T18:04:20.467Z,19.00
2022-08-31T18:06:53.334Z,19.00
2022-08-31T18:09:22.403Z,19.00
2022-08-31T18:11:51.073Z,18.90
2022-08-31T18:14:24.796Z,18.90
2022-08-31T18:16:55.518Z,18.80
2022-08-31T18:19:27.353Z,18.80
2022-08-31T18:21:58.186Z,18.70
2022-08-31T18:24:27.189Z,18.70
2022-08-31T18:26:56.642Z,18.70
2022-08-31T18:29:32.992Z,18.70
2022-08-31T18:32:03.947Z,18.70
2022-08-31T18:34:33.884Z,18.60
2022-08-31T18:37:04.273Z,18.60
2022-08-31T18:39:52.804Z,18.50
2022-08-31T18:42:39.159Z,18.50
2022-08-31T18:45:18.972Z,18.50
2022-08-31T18:48:23.335Z,18.40
2022-08-31T18:50:44.183Z,18.40
2022-08-31T18:53:29.277Z,18.30
2022-08-31T18:56:06.867Z,18.30
2022-08-31T18:58:35.633Z,18.30
2022-08-31T19:01:10.221Z,18.20
2022-08-31T19:03:38.960Z,18.20
2022-08-31T19:06:07.861Z,18.10
2022-08-31T19:08:37.511Z,18.10
2022-08-31T19:11:07.687Z,18.10
2022-08-31T19:13:36.063Z,18.10
2022-08-31T19:16:15.045Z,18.10
2022-08-31T19:18:48.264Z,18.00
2022-08-31T19:21:18.970Z,18.00
2022-08-31T19:23:49.225Z,18.00
2022-08-31T19:26:23.132Z,18.00
2022-08-31T19:28:51.526Z,17.90
2022-08-31T19:31:21.090Z,17.90
2022-08-31T19:33:56.096Z,17.90
2022-08-31T19:36:24.561Z,17.90
2022-08-31T19:38:55.600Z,17.90
2022-08-31T19:41:25.627Z,17.90
2022-08-31T19:44:05.614Z,17.80
2022-08-31T19:46:39.631Z,17.80
2022-08-31T19:49:09.548Z,17.90
2022-08-31T19:51:40.176Z,17.90
2022-08-31T19:54:12.142Z,17.80
2022-08-31T19:56:41.221Z,17.80
2022-08-31T19:59:10.237Z,17.80
2022-08-31T20:01:41.538Z,17.70
2022-08-31T20:04:15.852Z,17.70
2022-08-31T20:06:46.112Z,17.70
2022-08-31T20:09:16.668Z,17.70
2022-08-31T20:11:47.461Z,17.60
2022-08-31T20:14:16.748Z,17.60
2022-08-31T20:16:46.431Z,17.50
2022-08-31T20:19:18.921Z,17.50
2022-08-31T20:21:49.304Z,17.50
2022-08-31T20:24:18.701Z,17.40
2022-08-31T20:26:51.648Z,17.40
2022-08-31T20:29:21.272Z,17.30
2022-08-31T20:31:51.215Z,17.30
2022-08-31T20:34:21.864Z,17.30
2022-08-31T20:36:59.902Z,17.30
2022-08-31T20:39:32.752Z,17.20
2022-08-31T20:42:03.105Z,17.20
2022-08-31T20:44:34.770Z,17.20
2022-08-31T20:47:22.334Z,17.10
2022-08-31T20:49:53.607Z,17.10
2022-08-31T20:52:24.027Z,17.10
2022-08-31T20:55:01.237Z,17.10
2022-08-31T20:57:31.679Z,17.00
2022-08-31T21:00:04.093Z,17.00
2022-08-31T21:02:34.080Z,17.00
2022-08-31T21:07:53.174Z,17.00
2022-08-31T21:10:37.459Z,16.90
2022-08-31T21:13:08.866Z,17.00
2022-08-31T21:15:41.762Z,17.00
2022-08-31T21:18:09.928Z,16.90
2022-08-31T21:20:38.117Z,17.00
2022-08-31T21:23:10.468Z,16.90
2022-08-31T21:25:45.065Z,16.90
2022-08-31T21:28:14.414Z,16.90
2022-08-31T21:30:42.617Z,16.90
2022-08-31T21:33:10.645Z,16.90
2022-08-31T21:35:40.638Z,16.90
2022-08-31T21:38:12.940Z,16.90
2022-08-31T21:40:49.544Z,16.90
2022-08-31T21:43:17.914Z,16.90
2022-08-31T21:45:46.137Z,16.90
2022-08-31T21:48:16.418Z,16.80
2022-08-31T21:50:45.532Z,16.90
2022-08-31T21:53:13.464Z,16.80
2022-08-31T21:55:41.538Z,16.90
2022-08-31T21:58:13.676Z,16.90
2022-08-31T22:00:42.224Z,16.90
2022-08-31T22:03:10.522Z,16.80
2022-08-31T22:05:41.529Z,16.80
2022-08-31T22:08:09.551Z,16.80
2022-08-31T22:10:41.548Z,16.80
2022-08-31T22:13:11.430Z,16.80
2022-08-31T22:15:42.558Z,16.80
2022-08-31T22:18:58.115Z,16.70
2022-08-31T22:20:59.920Z,16.80
2022-08-31T22:23:28.111Z,16.80
2022-08-31T22:25:56.083Z,16.80
2022-08-31T22:28:25.048Z,16.80
2022-08-31T22:30:54.821Z,16.80
2022-08-31T22:33:23.236Z,16.70
2022-08-31T22:35:51.239Z,16.70
2022-08-31T22:38:19.347Z,16.70
2022-08-31T22:40:49.853Z,16.60
2022-08-31T22:43:18.328Z,16.60
2022-08-31T22:45:48.614Z,16.60
2022-08-31T22:48:18.567Z,16.60
2022-08-31T22:50:49.249Z,16.60
2022-08-31T22:53:17.384Z,16.60
2022-08-31T22:55:47.802Z,16.50
2022-08-31T22:58:15.945Z,16.50
2022-08-31T23:00:47.906Z,16.40
2022-08-31T23:03:17.865Z,16.40
2022-08-31T23:05:45.969Z,16.40
2022-08-31T23:08:14.987Z,16.40
2022-08-31T23:10:44.099Z,16.40
2022-08-31T23:13:12.052Z,16.30
2022-08-31T23:15:40.160Z,16.30
2022-08-31T23:18:10.621Z,16.30
2022-08-31T23:20:41.638Z,16.30
2022-08-31T23:23:10.351Z,16.30
2022-08-31T23:25:40.322Z,16.20
2022-08-31T23:28:08.673Z,16.10
2022-08-31T23:30:36.875Z,16.10
2022-08-31T23:33:05.058Z,16.10
2022-08-31T23:35:34.768Z,16.10
2022-08-31T23:38:04.075Z,16.00
2022-08-31T23:40:34.208Z,16.00
2022-08-31T23:43:02.340Z,16.00
2022-08-31T23:45:30.293Z,15.90
2022-08-31T23:48:01.464Z,16.00
2022-08-31T23:50:29.537Z,16.00
2022-08-31T23:52:57.557Z,16.00
2022-08-31T23:55:29.006Z,16.00
2022-08-31T23:57:59.088Z,16.00
